createdAt,value
2022-10-30T00:00:34.964Z,7.77
2022-10-30T00:03:04.782Z,10.80
2022-10-30T00:05:33.107Z,8.73
2022-10-30T00:08:01.647Z,9.30
2022-10-30T00:10:29.853Z,9.37
2022-10-30T00:12:58.036Z,10.23
2022-10-30T00:15:25.956Z,7.60
2022-10-30T00:17:54.635Z,12.73
2022-10-30T00:20:24.139Z,10.50
2022-10-30T00:22:52.267Z,8.47
2022-10-30T00:25:20.360Z,10.93
2022-10-30T00:27:48.349Z,8.03
2022-10-30T00:30:18.938Z,6.67
2022-10-30T00:32:46.895Z,7.70
2022-10-30T00:35:14.998Z,6.67
2022-10-30T00:37:44.353Z,7.33
2022-10-30T00:40:17.046Z,9.53
2022-10-30T00:42:45.366Z,6.73
2022-10-30T00:45:14.738Z,7.97
2022-10-30T00:47:45.588Z,6.73
2022-10-30T00:50:17.994Z,6.70
2022-10-30T00:52:52.178Z,8.53
2022-10-30T00:55:25.061Z,9.20
2022-10-30T00:57:54.133Z,7.53
2022-10-30T01:00:24.163Z,9.10
2022-10-30T01:02:53.158Z,10.13
2022-10-30T01:05:26.112Z,10.20
2022-10-30T01:07:55.848Z,8.30
2022-10-30T01:10:24.818Z,8.53
2022-10-30T01:12:54.289Z,8.90
2022-10-30T01:15:30.035Z,10.00
2022-10-30T01:18:23.753Z,9.20
2022-10-30T01:21:12.971Z,8.90
2022-10-30T01:23:55.028Z,8.03
2022-10-30T01:26:38.349Z,9.90
2022-10-30T01:29:22.329Z,9.10
2022-10-30T01:32:05.105Z,9.77
2022-10-30T01:34:44.058Z,8.00
2022-10-30T01:37:20.703Z,8.10
2022-10-30T01:39:50.055Z,7.53
2022-10-30T01:42:54.564Z,7.50
2022-10-30T01:45:33.137Z,7.50
2022-10-30T01:48:34.673Z,7.07
2022-10-30T01:51:10.678Z,8.17
2022-10-30T01:53:49.497Z,8.53
2022-10-30T01:56:28.836Z,8.83
2022-10-30T01:59:03.658Z,8.73
2022-10-30T02:01:35.687Z,7.70
2022-10-30T02:04:04.942Z,7.03
2022-10-30T02:06:32.923Z,8.47
2022-10-30T02:09:02.103Z,8.80
2022-10-30T02:11:34.003Z,9.07
2022-10-30T02:14:05.906Z,6.70
2022-10-30T02:16:38.658Z,7.23
2022-10-30T02:19:07.569Z,7.83
2022-10-30T02:21:37.766Z,7.70
2022-10-30T02:24:17.098Z,7.80
2022-10-30T02:26:45.181Z,7.63
2022-10-30T02:29:13.657Z,7.40
2022-10-30T02:31:41.639Z,7.73
2022-10-30T02:34:09.764Z,8.23
2022-10-30T02:36:39.824Z,10.10
2022-10-30T02:39:07.950Z,10.53
2022-10-30T02:41:36.090Z,10.30
2022-10-30T02:44:04.449Z,10.90
2022-10-30T02:46:32.376Z,9.27
2022-10-30T02:49:00.309Z,8.03
2022-10-30T02:51:28.235Z,6.63
2022-10-30T02:53:57.676Z,7.10
2022-10-30T02:56:25.602Z,6.27
2022-10-30T02:58:53.556Z,6.97
2022-10-30T03:01:21.713Z,5.07
2022-10-30T03:03:49.816Z,6.57
2022-10-30T03:06:19.686Z,6.90
2022-10-30T03:08:47.616Z,6.00
2022-10-30T03:11:19.107Z,6.70
2022-10-30T03:13:48.021Z,13.00
2022-10-30T03:16:17.544Z,11.80
2022-10-30T03:18:46.178Z,11.80
2022-10-30T03:21:17.943Z,39.80
2022-10-30T03:23:46.350Z,32.70
2022-10-30T03:26:17.942Z,8.20
2022-10-30T03:28:46.047Z,5.97
2022-10-30T03:31:16.025Z,6.40
2022-10-30T03:33:44.501Z,7.40
2022-10-30T03:36:14.342Z,6.57
2022-10-30T03:38:42.969Z,6.40
2022-10-30T03:41:11.516Z,8.00
2022-10-30T03:43:41.002Z,7.50
2022-10-30T03:46:10.283Z,7.30
2022-10-30T03:48:39.302Z,6.93
2022-10-30T03:51:07.535Z,5.80
2022-10-30T03:53:35.788Z,5.83
2022-10-30T03:56:05.585Z,5.83
2022-10-30T03:58:33.642Z,6.00
2022-10-30T04:01:04.562Z,5.17
2022-10-30T04:03:32.830Z,6.10
2022-10-30T04:06:04.069Z,6.13
2022-10-30T04:08:32.024Z,4.83
2022-10-30T04:11:00.092Z,5.80
2022-10-30T04:13:28.160Z,5.70
2022-10-30T04:15:58.131Z,5.70
2022-10-30T04:18:27.939Z,6.33
2022-10-30T04:20:56.397Z,6.87
2022-10-30T04:23:24.467Z,5.20
2022-10-30T04:25:52.404Z,5.57
2022-10-30T04:28:21.247Z,6.17
2022-10-30T04:30:49.598Z,4.97
2022-10-30T04:33:17.868Z,5.33
2022-10-30T04:35:47.128Z,5.40
2022-10-30T04:38:16.645Z,5.37
2022-10-30T04:40:45.458Z,5.97
2022-10-30T04:43:14.741Z,5.37
2022-10-30T04:45:43.315Z,5.73
2022-10-30T04:48:14.770Z,5.13
2022-10-30T04:50:43.931Z,5.53
2022-10-30T04:53:15.422Z,4.30
2022-10-30T04:55:44.116Z,4.07
2022-10-30T04:58:13.201Z,4.47
2022-10-30T05:00:41.816Z,6.13
2022-10-30T05:03:17.673Z,7.10
2022-10-30T05:05:45.989Z,6.03
2022-10-30T05:08:15.412Z,5.50
2022-10-30T05:10:43.441Z,6.10
2022-10-30T05:13:12.563Z,6.90
2022-10-30T05:15:40.606Z,5.17
2022-10-30T05:18:09.105Z,7.73
2022-10-30T05:20:37.344Z,7.20
2022-10-30T05:23:05.761Z,6.60
2022-10-30T05:25:35.878Z,5.80
2022-10-30T05:28:06.381Z,4.90
2022-10-30T05:30:35.800Z,6.60
2022-10-30T05:33:05.830Z,9.10
2022-10-30T05:35:35.506Z,14.23
2022-10-30T05:38:06.028Z,23.30
2022-10-30T05:40:35.793Z,11.60
2022-10-30T05:43:04.689Z,11.60
2022-10-30T05:45:33.038Z,9.30
2022-10-30T05:48:03.130Z,9.67
2022-10-30T05:50:32.049Z,7.33
2022-10-30T05:53:00.305Z,6.60
2022-10-30T05:55:29.228Z,7.23
2022-10-30T05:57:59.652Z,7.10
2022-10-30T06:00:29.181Z,8.40
2022-10-30T06:03:02.154Z,7.70
2022-10-30T06:05:32.489Z,7.07
2022-10-30T06:08:00.501Z,7.10
2022-10-30T06:10:29.251Z,7.90
2022-10-30T06:13:00.487Z,9.93
2022-10-30T06:15:30.482Z,8.50
2022-10-30T06:17:59.110Z,10.07
2022-10-30T06:20:30.810Z,8.67
2022-10-30T06:23:00.251Z,9.60
2022-10-30T06:25:29.435Z,8.83
2022-10-30T06:28:00.039Z,8.20
2022-10-30T06:30:30.044Z,7.70
2022-10-30T06:32:59.823Z,8.53
2022-10-30T06:35:28.654Z,7.73
2022-10-30T06:38:00.039Z,6.60
2022-10-30T06:40:29.869Z,7.80
2022-10-30T06:42:59.731Z,7.70
2022-10-30T06:45:27.997Z,7.13
2022-10-30T06:47:56.284Z,7.23
2022-10-30T06:50:25.193Z,8.13
2022-10-30T06:52:55.444Z,7.10
2022-10-30T06:55:23.376Z,6.90
2022-10-30T06:57:55.705Z,6.37
2022-10-30T07:00:25.353Z,6.87
2022-10-30T07:02:57.842Z,5.43
2022-10-30T07:05:26.189Z,5.00
2022-10-30T07:07:56.429Z,5.00
2022-10-30T07:10:24.431Z,4.80
2022-10-30T07:12:53.944Z,4.77
2022-10-30T07:15:21.968Z,5.87
2022-10-30T07:17:58.983Z,5.40
2022-10-30T07:20:28.924Z,6.50
2022-10-30T07:22:56.980Z,6.47
2022-10-30T07:25:25.135Z,5.90
2022-10-30T07:27:54.487Z,5.17
2022-10-30T07:33:04.144Z,4.60
2022-10-30T07:35:32.733Z,4.93
2022-10-30T07:38:04.150Z,5.63
2022-10-30T07:40:32.126Z,5.00
2022-10-30T07:43:02.832Z,5.00
2022-10-30T07:45:31.587Z,4.60
2022-10-30T07:48:01.281Z,4.80
2022-10-30T07:50:29.693Z,5.20
2022-10-30T07:52:57.811Z,4.97
2022-10-30T07:55:25.936Z,6.20
2022-10-30T07:57:53.887Z,6.67
2022-10-30T08:00:22.068Z,6.43
2022-10-30T08:02:51.659Z,5.40
2022-10-30T08:05:24.348Z,6.60
2022-10-30T08:07:56.984Z,6.10
2022-10-30T08:10:26.373Z,5.10
2022-10-30T08:12:54.687Z,5.87
2022-10-30T08:15:24.421Z,5.97
2022-10-30T08:17:53.062Z,5.20
2022-10-30T08:20:24.743Z,5.37
2022-10-30T08:22:54.753Z,5.40
2022-10-30T08:25:24.645Z,4.70
2022-10-30T08:27:55.412Z,4.17
2022-10-30T08:30:24.750Z,5.97
2022-10-30T08:32:52.756Z,5.70
2022-10-30T08:35:22.179Z,5.00
2022-10-30T08:37:52.420Z,4.80
2022-10-30T08:40:20.371Z,4.63
2022-10-30T08:42:52.081Z,4.93
2022-10-30T08:45:20.365Z,5.37
2022-10-30T08:47:48.624Z,4.57
2022-10-30T08:50:16.889Z,5.30
2022-10-30T08:52:49.482Z,5.40
2022-10-30T08:55:20.822Z,3.80
2022-10-30T08:57:49.284Z,4.00
2022-10-30T09:00:17.608Z,4.13
2022-10-30T09:02:46.260Z,3.43
2022-10-30T09:05:14.317Z,3.80
2022-10-30T09:07:42.273Z,4.47
2022-10-30T09:10:12.105Z,3.60
2022-10-30T09:12:40.877Z,3.90
2022-10-30T09:15:09.610Z,4.43
2022-10-30T09:17:37.650Z,4.30
2022-10-30T09:20:06.551Z,4.10
2022-10-30T09:22:34.474Z,4.60
2022-10-30T09:25:02.446Z,3.57
2022-10-30T09:27:32.057Z,4.00
2022-10-30T09:30:01.557Z,3.50
2022-10-30T09:32:29.494Z,4.50
2022-10-30T09:34:57.685Z,4.13
2022-10-30T09:37:26.611Z,3.50
2022-10-30T09:39:54.609Z,3.40
2022-10-30T09:42:45.814Z,4.03
2022-10-30T09:45:30.159Z,3.60
2022-10-30T09:48:12.574Z,3.70
2022-10-30T09:50:50.054Z,3.37
2022-10-30T09:53:24.048Z,3.40
2022-10-30T09:56:01.608Z,4.23
2022-10-30T09:58:40.129Z,3.67
2022-10-30T10:01:18.129Z,4.70
2022-10-30T10:03:59.190Z,4.20
2022-10-30T10:06:27.654Z,3.60
2022-10-30T10:09:02.193Z,3.50
2022-10-30T10:11:37.596Z,2.90
2022-10-30T10:14:10.598Z,3.33
2022-10-30T10:16:41.766Z,3.83
2022-10-30T10:19:16.590Z,3.90
2022-10-30T10:21:47.826Z,3.43
2022-10-30T10:24:20.655Z,3.07
2022-10-30T10:26:51.542Z,4.40
2022-10-30T10:29:33.452Z,3.90
2022-10-30T10:32:22.739Z,3.43
2022-10-30T10:35:01.148Z,3.80
2022-10-30T10:37:38.781Z,3.60
2022-10-30T10:40:23.602Z,3.80
2022-10-30T10:43:07.389Z,3.80
2022-10-30T10:45:45.552Z,3.30
2022-10-30T10:48:29.001Z,3.53
2022-10-30T10:51:02.891Z,3.73
2022-10-30T10:53:38.391Z,3.77
2022-10-30T10:56:07.445Z,3.63
2022-10-30T10:58:45.907Z,3.67
2022-10-30T11:01:19.433Z,3.10
2022-10-30T11:03:57.441Z,3.57
2022-10-30T11:06:28.540Z,3.10
2022-10-30T11:09:13.913Z,3.83
2022-10-30T11:11:42.306Z,4.30
2022-10-30T11:14:16.350Z,3.30
2022-10-30T11:17:04.960Z,3.00
2022-10-30T11:19:33.425Z,3.77
2022-10-30T11:22:03.500Z,4.20
2022-10-30T11:24:33.331Z,3.30
2022-10-30T11:27:18.614Z,3.73
2022-10-30T11:29:53.668Z,4.50
2022-10-30T11:32:27.039Z,3.67
2022-10-30T11:35:03.527Z,4.00
2022-10-30T11:37:35.738Z,3.93
2022-10-30T11:40:07.634Z,3.93
2022-10-30T11:42:36.969Z,3.37
2022-10-30T11:45:05.969Z,3.73
2022-10-30T11:47:38.530Z,3.57
2022-10-30T11:50:16.405Z,3.70
2022-10-30T11:52:45.734Z,3.67
2022-10-30T11:55:22.238Z,3.30
2022-10-30T11:57:53.050Z,3.60
2022-10-30T12:00:24.035Z,3.30
2022-10-30T12:02:54.909Z,3.00
2022-10-30T12:05:39.377Z,3.73
2022-10-30T12:08:22.607Z,3.60
2022-10-30T12:11:00.745Z,3.47
2022-10-30T12:13:33.400Z,4.07
2022-10-30T12:16:10.505Z,4.10
2022-10-30T12:18:40.997Z,3.87
2022-10-30T12:21:09.094Z,3.57
2022-10-30T12:23:37.690Z,3.40
2022-10-30T12:26:11.967Z,3.10
2022-10-30T12:28:40.656Z,3.50
2022-10-30T12:31:14.563Z,3.00
2022-10-30T12:33:50.169Z,4.30
2022-10-30T12:36:22.186Z,3.00
2022-10-30T12:38:53.340Z,3.33
2022-10-30T12:41:26.271Z,3.63
2022-10-30T12:44:01.141Z,3.40
2022-10-30T12:46:34.869Z,2.93
2022-10-30T12:49:12.792Z,3.30
2022-10-30T12:51:50.828Z,4.20
2022-10-30T12:54:26.795Z,3.00
2022-10-30T12:57:04.822Z,2.93
2022-10-30T12:59:42.065Z,3.43
2022-10-30T13:02:21.192Z,3.53
2022-10-30T13:04:55.505Z,3.03
2022-10-30T13:07:27.795Z,3.30
2022-10-30T13:10:04.974Z,3.97
2022-10-30T13:12:37.434Z,3.30
2022-10-30T13:15:11.246Z,3.67
2022-10-30T13:17:39.272Z,3.50
2022-10-30T13:20:13.622Z,3.77
2022-10-30T13:22:48.331Z,4.67
2022-10-30T13:25:23.263Z,3.27
2022-10-30T13:27:56.550Z,3.73
2022-10-30T13:30:30.493Z,5.07
2022-10-30T13:33:07.597Z,5.50
2022-10-30T13:35:43.293Z,4.07
2022-10-30T13:38:26.161Z,6.07
2022-10-30T13:41:00.178Z,6.30
2022-10-30T13:43:41.879Z,4.03
2022-10-30T13:46:25.792Z,4.00
2022-10-30T13:49:11.133Z,3.73
2022-10-30T13:51:44.039Z,3.53
2022-10-30T13:54:19.232Z,4.60
2022-10-30T13:56:48.881Z,3.33
2022-10-30T13:59:39.140Z,3.80
2022-10-30T14:02:18.413Z,4.47
2022-10-30T14:04:56.800Z,3.37
2022-10-30T14:07:34.170Z,3.20
2022-10-30T14:10:08.604Z,3.27
2022-10-30T14:12:50.539Z,3.30
2022-10-30T14:15:42.488Z,4.37
2022-10-30T14:18:30.020Z,3.80
2022-10-30T14:20:59.584Z,3.47
2022-10-30T14:23:34.959Z,5.00
2022-10-30T14:26:20.821Z,3.47
2022-10-30T14:28:50.622Z,3.10
2022-10-30T14:31:19.992Z,4.10
2022-10-30T14:33:50.350Z,4.77
2022-10-30T14:36:21.826Z,4.00
2022-10-30T14:39:31.703Z,3.17
2022-10-30T14:42:11.811Z,3.63
2022-10-30T14:45:01.587Z,3.27
2022-10-30T14:47:52.561Z,4.40
2022-10-30T14:50:32.351Z,3.57
2022-10-30T14:53:38.835Z,3.60
2022-10-30T14:56:20.170Z,3.80
2022-10-30T14:59:10.894Z,2.87
2022-10-30T15:01:46.906Z,3.90
2022-10-30T15:04:22.499Z,3.03
2022-10-30T15:06:58.843Z,3.53
2022-10-30T15:09:41.744Z,3.77
2022-10-30T15:12:52.040Z,3.50
2022-10-30T15:15:22.790Z,3.77
2022-10-30T15:17:53.441Z,5.00
2022-10-30T15:20:24.425Z,5.37
2022-10-30T15:22:55.660Z,4.47
2022-10-30T15:25:27.874Z,3.90
2022-10-30T15:27:58.634Z,4.07
2022-10-30T15:30:28.895Z,3.80
2022-10-30T15:32:57.712Z,4.77
2022-10-30T15:35:27.908Z,3.50
2022-10-30T15:38:04.092Z,4.33
2022-10-30T15:40:32.787Z,4.27
2022-10-30T15:43:02.976Z,3.80
2022-10-30T15:45:35.339Z,4.43
2022-10-30T15:48:07.610Z,4.43
2022-10-30T15:50:36.409Z,4.10
2022-10-30T15:53:04.754Z,3.90
2022-10-30T15:55:34.028Z,4.00
2022-10-30T15:58:05.292Z,5.07
2022-10-30T16:00:36.988Z,4.33
2022-10-30T16:03:07.457Z,6.67
2022-10-30T16:05:36.338Z,7.47
2022-10-30T16:08:10.932Z,16.30
2022-10-30T16:10:40.605Z,13.57
2022-10-30T16:13:15.986Z,10.20
2022-10-30T16:15:47.404Z,8.07
2022-10-30T16:18:21.073Z,5.70
2022-10-30T16:20:51.662Z,5.10
2022-10-30T16:23:21.148Z,5.50
2022-10-30T16:25:54.543Z,6.10
2022-10-30T16:28:28.565Z,8.53
2022-10-30T16:31:00.888Z,6.07
2022-10-30T16:33:30.648Z,5.33
2022-10-30T16:36:00.160Z,7.10
2022-10-30T16:38:32.399Z,5.87
2022-10-30T16:41:00.560Z,5.70
2022-10-30T16:43:31.081Z,5.60
2022-10-30T16:46:38.806Z,6.43
2022-10-30T16:49:10.052Z,7.67
2022-10-30T16:51:40.605Z,8.20
2022-10-30T16:54:22.398Z,7.63
2022-10-30T16:56:53.889Z,7.87
2022-10-30T16:59:28.538Z,8.40
2022-10-30T17:02:00.692Z,6.90
2022-10-30T17:04:30.903Z,7.30
2022-10-30T17:07:17.241Z,6.77
2022-10-30T17:09:47.128Z,7.83
2022-10-30T17:12:21.999Z,7.10
2022-10-30T17:14:52.942Z,7.10
2022-10-30T17:17:31.282Z,7.00
2022-10-30T17:20:18.926Z,8.70
2022-10-30T17:22:54.460Z,10.63
2022-10-30T17:25:31.892Z,8.30
2022-10-30T17:28:00.064Z,6.50
2022-10-30T17:30:34.408Z,7.50
2022-10-30T17:33:22.611Z,5.90
2022-10-30T17:35:50.746Z,7.10
2022-10-30T17:38:18.897Z,9.03
2022-10-30T17:40:47.073Z,7.53
2022-10-30T17:43:15.641Z,8.03
2022-10-30T17:45:43.982Z,8.20
2022-10-30T17:48:15.483Z,7.00
2022-10-30T17:50:44.678Z,6.80
2022-10-30T17:53:18.408Z,7.23
2022-10-30T17:55:51.639Z,8.20
2022-10-30T17:58:22.473Z,7.23
2022-10-30T18:00:50.946Z,8.00
2022-10-30T18:03:20.329Z,7.20
2022-10-30T18:05:50.315Z,9.03
2022-10-30T18:08:18.550Z,6.20
2022-10-30T18:10:48.209Z,6.80
2022-10-30T18:13:17.160Z,5.50
2022-10-30T18:15:49.034Z,4.60
2022-10-30T18:18:17.498Z,5.20
2022-10-30T18:20:47.072Z,5.07
2022-10-30T18:23:51.461Z,4.93
2022-10-30T18:26:22.786Z,5.90
2022-10-30T18:28:51.701Z,5.27
2022-10-30T18:31:22.530Z,6.10
2022-10-30T18:33:51.936Z,7.37
2022-10-30T18:36:23.406Z,7.37
2022-10-30T18:38:52.609Z,7.00
2022-10-30T18:41:23.976Z,5.80
2022-10-30T18:43:51.997Z,6.37
2022-10-30T18:46:21.917Z,6.10
2022-10-30T18:48:50.476Z,6.27
2022-10-30T18:51:22.658Z,7.10
2022-10-30T18:53:52.676Z,7.60
2022-10-30T18:56:22.094Z,7.40
2022-10-30T18:58:54.797Z,5.70
2022-10-30T19:01:27.488Z,6.80
2022-10-30T19:03:55.669Z,7.20
2022-10-30T19:06:27.729Z,7.10
2022-10-30T19:08:56.158Z,8.10
2022-10-30T19:11:25.823Z,8.70
2022-10-30T19:13:55.439Z,10.67
2022-10-30T19:16:24.419Z,10.00
2022-10-30T19:18:52.549Z,9.73
2022-10-30T19:21:22.859Z,10.70
2022-10-30T19:23:52.702Z,10.10
2022-10-30T19:26:20.875Z,8.20
2022-10-30T19:28:49.104Z,5.30
2022-10-30T19:31:18.713Z,7.30
2022-10-30T19:33:51.366Z,9.03
2022-10-30T19:36:31.858Z,8.00
2022-10-30T19:39:08.322Z,8.27
2022-10-30T19:41:37.417Z,7.20
2022-10-30T19:44:05.903Z,8.23
2022-10-30T19:46:34.074Z,8.80
2022-10-30T19:49:02.692Z,9.37
2022-10-30T19:51:30.697Z,11.90
2022-10-30T19:53:58.670Z,8.30
2022-10-30T19:56:28.002Z,11.57
2022-10-30T19:58:56.073Z,5.80
2022-10-30T20:01:24.227Z,6.30
2022-10-30T20:03:52.478Z,6.47
2022-10-30T20:06:21.372Z,8.40
2022-10-30T20:08:49.542Z,7.87
2022-10-30T20:11:17.534Z,5.97
2022-10-30T20:13:50.756Z,7.33
2022-10-30T20:16:21.809Z,8.00
2022-10-30T20:18:50.774Z,7.70
2022-10-30T20:21:20.373Z,8.83
2022-10-30T20:23:48.384Z,7.93
2022-10-30T20:26:24.026Z,7.77
2022-10-30T20:28:54.392Z,9.30
2022-10-30T20:31:22.741Z,12.53
2022-10-30T20:33:50.685Z,11.80
2022-10-30T20:36:18.689Z,10.63
2022-10-30T20:38:46.733Z,9.57
2022-10-30T20:41:22.649Z,7.83
2022-10-30T20:43:51.061Z,8.53
2022-10-30T20:46:21.379Z,9.90
2022-10-30T20:48:49.557Z,8.27
2022-10-30T20:51:17.476Z,9.70
2022-10-30T20:53:45.633Z,9.40
2022-10-30T20:56:13.777Z,9.17
2022-10-30T20:58:42.446Z,8.87
2022-10-30T21:01:10.823Z,7.10
2022-10-30T21:03:40.387Z,9.83
2022-10-30T21:06:09.751Z,9.03
2022-10-30T21:08:37.856Z,8.43
2022-10-30T21:11:07.547Z,9.10
2022-10-30T21:13:36.320Z,9.87
2022-10-30T21:16:06.201Z,10.97
2022-10-30T21:18:34.168Z,10.70
2022-10-30T21:21:04.040Z,10.63
2022-10-30T21:23:32.000Z,8.70
2022-10-30T21:26:00.710Z,7.40
2022-10-30T21:28:29.073Z,8.57
2022-10-30T21:31:01.032Z,7.10
2022-10-30T21:33:31.247Z,7.50
2022-10-30T21:36:07.770Z,7.80
2022-10-30T21:38:42.755Z,8.67
2022-10-30T21:41:11.086Z,7.87
2022-10-30T21:43:39.147Z,7.90
2022-10-30T21:46:07.836Z,6.93
2022-10-30T21:48:35.812Z,7.43
2022-10-30T21:51:11.852Z,8.77
2022-10-30T21:53:41.632Z,8.90
2022-10-30T21:56:11.613Z,8.77
2022-10-30T21:58:39.838Z,7.67
2022-10-30T22:01:08.268Z,7.90
2022-10-30T22:03:36.370Z,8.33
2022-10-30T22:06:09.639Z,7.30
2022-10-30T22:08:37.745Z,6.97
2022-10-30T22:11:09.611Z,6.70
2022-10-30T22:13:39.119Z,6.93
2022-10-30T22:16:08.774Z,7.50
2022-10-30T22:18:37.426Z,7.00
2022-10-30T22:21:07.128Z,7.90
2022-10-30T22:23:36.989Z,7.77
2022-10-30T22:26:08.517Z,8.17
2022-10-30T22:28:36.938Z,7.40
2022-10-30T22:31:06.108Z,7.53
2022-10-30T22:33:34.349Z,9.03
2022-10-30T22:36:04.410Z,9.33
2022-10-30T22:38:32.410Z,8.83
2022-10-30T22:41:13.413Z,8.53
2022-10-30T22:43:42.442Z,8.40
2022-10-30T22:46:11.541Z,7.97
2022-10-30T22:48:40.366Z,8.03
2022-10-30T22:51:13.535Z,8.70
2022-10-30T22:53:45.114Z,12.40
2022-10-30T22:56:16.995Z,13.90
2022-10-30T22:58:46.106Z,7.57
2022-10-30T23:01:16.015Z,15.80
2022-10-30T23:03:44.250Z,11.50
2022-10-30T23:06:12.954Z,16.30
2022-10-30T23:08:41.209Z,13.53
2022-10-30T23:11:09.520Z,14.10
2022-10-30T23:13:39.047Z,13.00
2022-10-30T23:16:09.382Z,6.70
2022-10-30T23:18:38.441Z,13.87
2022-10-30T23:21:09.238Z,17.70
2022-10-30T23:23:37.824Z,12.17
2022-10-30T23:26:07.889Z,12.73
2022-10-30T23:28:35.975Z,11.77
2022-10-30T23:31:06.568Z,11.60
2022-10-30T23:33:35.002Z,11.63
2022-10-30T23:36:04.019Z,11.33
2022-10-30T23:38:32.276Z,10.73
2022-10-30T23:41:00.323Z,8.87
2022-10-30T23:43:28.269Z,9.63
2022-10-30T23:45:56.390Z,9.33
2022-10-30T23:48:25.790Z,6.50
2022-10-30T23:50:54.152Z,8.73
2022-10-30T23:53:22.178Z,9.30
2022-10-30T23:55:54.905Z,9.20
2022-10-30T23:58:23.069Z,6.87
